createdAt,value
2017-09-22T00:00:05.266Z,9.20
2017-09-22T00:02:33.111Z,9.20
2017-09-22T00:05:01.916Z,9.00
2017-09-22T00:07:29.780Z,9.00
2017-09-22T00:09:57.545Z,8.80
2017-09-22T00:12:25.409Z,8.70
2017-09-22T00:14:53.174Z,8.80
2017-09-22T00:17:21.048Z,8.90
2017-09-22T00:19:48.801Z,8.80
2017-09-22T00:22:16.757Z,8.70
2017-09-22T00:24:44.472Z,8.70
2017-09-22T00:27:13.032Z,8.70
2017-09-22T00:29:40.751Z,8.60
2017-09-22T00:32:09.360Z,8.60
2017-09-22T00:34:37.957Z,8.50
2017-09-22T00:37:06.095Z,8.60
2017-09-22T00:39:33.929Z,8.60
2017-09-22T00:42:02.561Z,8.70
2017-09-22T00:44:30.446Z,8.70
2017-09-22T00:46:58.288Z,8.80
2017-09-22T00:49:26.038Z,8.60
2017-09-22T00:51:53.930Z,8.40
2017-09-22T00:54:21.733Z,8.50
2017-09-22T00:56:50.294Z,8.40
2017-09-22T00:59:18.161Z,8.40
2017-09-22T01:01:46.015Z,8.40
2017-09-22T01:04:13.783Z,8.20
2017-09-22T01:06:41.656Z,8.30
2017-09-22T01:09:09.632Z,8.30
2017-09-22T01:11:38.320Z,8.20
2017-09-22T01:14:06.765Z,8.00
2017-09-22T01:16:34.547Z,7.80
2017-09-22T01:19:02.271Z,7.90
2017-09-22T01:21:30.176Z,7.90
2017-09-22T01:23:58.146Z,7.80
2017-09-22T01:26:26.012Z,7.80
2017-09-22T01:28:53.765Z,8.00
2017-09-22T01:31:21.732Z,8.10
2017-09-22T01:33:49.547Z,8.40
2017-09-22T01:36:18.088Z,8.50
2017-09-22T01:38:45.956Z,8.50
2017-09-22T01:41:13.719Z,8.60
2017-09-22T01:43:41.681Z,8.70
2017-09-22T01:46:09.399Z,8.70
2017-09-22T01:48:37.170Z,8.70
2017-09-22T01:51:04.980Z,8.70
2017-09-22T01:53:33.458Z,8.60
2017-09-22T01:56:01.241Z,8.60
2017-09-22T01:58:29.006Z,8.80
2017-09-22T02:00:57.681Z,8.70
2017-09-22T02:03:25.756Z,8.70
2017-09-22T02:05:53.696Z,8.60
2017-09-22T02:08:21.992Z,8.60
2017-09-22T02:10:49.756Z,8.50
2017-09-22T02:13:17.520Z,8.40
2017-09-22T02:15:45.367Z,8.40
2017-09-22T02:18:13.336Z,8.20
2017-09-22T02:20:41.119Z,8.20
2017-09-22T02:23:09.002Z,8.20
2017-09-22T02:25:36.851Z,8.30
2017-09-22T02:28:05.638Z,8.40
2017-09-22T02:30:33.396Z,8.30
2017-09-22T02:33:01.152Z,8.00
2017-09-22T02:35:28.926Z,7.90
2017-09-22T02:37:56.826Z,7.80
2017-09-22T02:40:25.424Z,7.50
2017-09-22T02:42:53.945Z,7.40
2017-09-22T02:45:21.730Z,7.30
2017-09-22T02:47:49.902Z,7.40
2017-09-22T02:50:17.771Z,7.30
2017-09-22T02:52:45.516Z,7.30
2017-09-22T02:55:13.404Z,7.30
2017-09-22T02:57:41.145Z,7.20
2017-09-22T03:00:09.033Z,7.20
2017-09-22T03:02:36.898Z,7.10
2017-09-22T03:05:04.763Z,7.00
2017-09-22T03:07:33.559Z,7.10
2017-09-22T03:10:01.424Z,7.20
2017-09-22T03:12:29.284Z,7.30
2017-09-22T03:14:57.815Z,7.70
2017-09-22T03:17:25.708Z,7.60
2017-09-22T03:19:53.441Z,7.70
2017-09-22T03:22:21.267Z,7.80
2017-09-22T03:24:49.135Z,7.80
2017-09-22T03:27:16.972Z,7.80
2017-09-22T03:29:44.775Z,7.80
2017-09-22T03:32:12.725Z,7.70
2017-09-22T03:34:40.479Z,7.70
2017-09-22T03:37:08.290Z,7.70
2017-09-22T03:39:36.846Z,7.90
2017-09-22T03:42:04.720Z,7.80
2017-09-22T03:44:33.278Z,7.80
2017-09-22T03:47:01.333Z,7.80
2017-09-22T03:49:29.221Z,7.80
2017-09-22T03:51:56.984Z,7.90
2017-09-22T03:54:24.751Z,7.90
2017-09-22T03:56:52.619Z,7.90
2017-09-22T03:59:20.361Z,8.00
2017-09-22T04:01:48.139Z,8.00
2017-09-22T04:04:15.922Z,8.00
2017-09-22T04:06:45.288Z,7.80
2017-09-22T04:09:13.072Z,7.80
2017-09-22T04:11:40.835Z,7.90
2017-09-22T04:14:08.627Z,7.90
2017-09-22T04:16:37.685Z,7.80
2017-09-22T04:19:05.664Z,7.80
2017-09-22T04:21:33.533Z,7.70
2017-09-22T04:24:01.421Z,7.70
2017-09-22T04:26:29.182Z,7.70
2017-09-22T04:28:57.523Z,7.60
2017-09-22T04:31:25.348Z,7.60
2017-09-22T04:33:53.288Z,7.60
2017-09-22T04:36:21.053Z,7.60
2017-09-22T04:38:48.803Z,7.60
2017-09-22T04:41:16.649Z,7.60
2017-09-22T04:43:44.515Z,7.60
2017-09-22T04:46:12.316Z,7.40
2017-09-22T04:48:40.170Z,7.40
2017-09-22T04:51:08.036Z,7.20
2017-09-22T04:53:35.794Z,7.20
2017-09-22T04:56:03.745Z,7.10
2017-09-22T04:58:31.587Z,7.30
2017-09-22T05:00:59.396Z,7.40
2017-09-22T05:03:27.148Z,7.50
2017-09-22T05:05:55.021Z,7.50
2017-09-22T05:08:22.879Z,7.60
2017-09-22T05:10:50.740Z,7.50
2017-09-22T05:13:18.542Z,7.40
2017-09-22T05:15:46.594Z,7.40
2017-09-22T05:18:14.470Z,7.40
2017-09-22T05:20:43.117Z,7.40
2017-09-22T05:23:11.099Z,7.40
2017-09-22T05:25:38.995Z,7.40
2017-09-22T05:28:06.932Z,7.40
2017-09-22T05:30:34.794Z,7.40
2017-09-22T05:33:02.770Z,7.40
2017-09-22T05:35:30.579Z,7.40
2017-09-22T05:37:59.240Z,7.50
2017-09-22T05:40:27.621Z,7.50
2017-09-22T05:42:55.477Z,7.50
2017-09-22T05:45:23.344Z,7.60
2017-09-22T05:47:51.213Z,7.70
2017-09-22T05:50:19.055Z,7.70
2017-09-22T05:52:46.945Z,7.80
2017-09-22T05:55:14.871Z,7.80
2017-09-22T05:57:42.662Z,7.90
2017-09-22T06:00:10.633Z,8.00
2017-09-22T06:02:38.407Z,8.30
2017-09-22T06:05:06.258Z,8.80
2017-09-22T06:07:34.112Z,9.30
2017-09-22T06:10:01.946Z,9.60
2017-09-22T06:12:30.577Z,10.10
2017-09-22T06:14:58.366Z,10.10
2017-09-22T06:17:26.306Z,10.20
2017-09-22T06:19:54.285Z,10.50
2017-09-22T06:22:22.159Z,10.40
2017-09-22T06:24:50.038Z,10.90
2017-09-22T06:27:17.819Z,11.30
2017-09-22T06:29:46.371Z,11.80
2017-09-22T06:32:14.250Z,11.80
2017-09-22T06:34:42.192Z,12.00
2017-09-22T06:37:09.987Z,12.20
2017-09-22T06:39:37.919Z,12.40
2017-09-22T06:42:05.686Z,13.30
2017-09-22T06:44:33.654Z,14.20
2017-09-22T06:47:01.562Z,14.50
2017-09-22T06:49:30.224Z,14.80
2017-09-22T06:51:58.279Z,14.80
2017-09-22T06:54:26.455Z,14.50
2017-09-22T06:56:54.359Z,14.60
2017-09-22T06:59:23.123Z,15.40
2017-09-22T07:01:50.995Z,15.40
2017-09-22T07:04:18.944Z,15.70
2017-09-22T07:06:46.813Z,14.90
2017-09-22T07:09:14.699Z,13.60
2017-09-22T07:11:44.096Z,14.80
2017-09-22T07:14:11.981Z,14.80
2017-09-22T07:16:39.832Z,15.30
2017-09-22T07:19:07.678Z,15.70
2017-09-22T07:21:35.403Z,15.40
2017-09-22T07:24:03.200Z,15.30
2017-09-22T07:26:31.190Z,16.20
2017-09-22T07:28:59.860Z,16.10
2017-09-22T07:31:27.737Z,16.10
2017-09-22T07:33:55.699Z,16.50
2017-09-22T07:36:23.681Z,17.00
2017-09-22T07:38:51.530Z,17.20
2017-09-22T07:41:19.426Z,17.50
2017-09-22T07:43:47.290Z,18.00
2017-09-22T07:46:15.164Z,18.20
2017-09-22T07:48:43.129Z,18.30
2017-09-22T07:51:11.169Z,18.20
2017-09-22T07:53:39.054Z,17.30
2017-09-22T07:56:07.139Z,16.30
2017-09-22T07:58:35.004Z,15.10
2017-09-22T08:01:02.762Z,15.30
2017-09-22T08:03:30.611Z,15.50
2017-09-22T08:05:58.351Z,16.10
2017-09-22T08:08:26.651Z,17.50
2017-09-22T08:10:54.615Z,17.60
2017-09-22T08:13:22.499Z,18.60
2017-09-22T08:15:50.451Z,18.20
2017-09-22T08:18:18.335Z,16.90
2017-09-22T08:20:46.086Z,17.20
2017-09-22T08:23:14.150Z,17.50
2017-09-22T08:25:42.018Z,17.60
2017-09-22T08:28:10.092Z,17.20
2017-09-22T08:30:38.116Z,17.70
2017-09-22T08:33:06.032Z,18.50
2017-09-22T08:35:33.994Z,19.00
2017-09-22T08:38:01.874Z,19.10
2017-09-22T08:40:30.062Z,18.80
2017-09-22T08:42:57.997Z,19.10
2017-09-22T08:45:25.743Z,19.20
2017-09-22T08:47:53.821Z,19.20
2017-09-22T08:50:21.728Z,19.30
2017-09-22T08:52:49.693Z,20.00
2017-09-22T08:55:17.452Z,19.70
2017-09-22T08:57:45.199Z,20.70
2017-09-22T09:00:12.947Z,21.00
2017-09-22T09:02:40.792Z,20.50
2017-09-22T09:05:08.666Z,20.10
2017-09-22T09:07:36.768Z,19.00
2017-09-22T09:10:04.569Z,19.60
2017-09-22T09:12:34.059Z,20.20
2017-09-22T09:15:01.795Z,20.20
2017-09-22T09:17:29.564Z,20.30
2017-09-22T09:19:57.358Z,20.00
2017-09-22T09:22:25.346Z,20.80
2017-09-22T09:24:53.985Z,20.10
2017-09-22T09:27:21.883Z,20.10
2017-09-22T09:29:49.769Z,19.90
2017-09-22T09:32:19.235Z,19.30
2017-09-22T09:34:47.010Z,19.20
2017-09-22T09:37:14.884Z,19.90
2017-09-22T09:39:42.727Z,20.60
2017-09-22T09:42:10.718Z,20.00
2017-09-22T09:44:40.099Z,20.30
2017-09-22T09:47:08.020Z,20.90
2017-09-22T09:49:36.854Z,20.80
2017-09-22T09:52:06.137Z,20.80
2017-09-22T09:54:34.025Z,20.90
2017-09-22T09:57:01.890Z,21.20
2017-09-22T09:59:30.061Z,20.80
2017-09-22T10:02:03.053Z,19.90
2017-09-22T10:04:30.930Z,20.10
2017-09-22T10:06:58.993Z,19.80
2017-09-22T10:09:27.082Z,20.20
2017-09-22T10:11:55.140Z,20.30
2017-09-22T10:14:22.993Z,20.10
2017-09-22T10:16:50.775Z,19.80
2017-09-22T10:19:18.565Z,19.60
2017-09-22T10:21:47.088Z,18.90
2017-09-22T10:24:14.991Z,18.90
2017-09-22T10:26:43.680Z,18.90
2017-09-22T10:29:11.586Z,18.90
2017-09-22T10:31:39.448Z,19.10
2017-09-22T10:34:07.974Z,18.80
2017-09-22T10:36:35.943Z,18.80
2017-09-22T10:39:04.219Z,18.90
2017-09-22T10:41:32.016Z,18.60
2017-09-22T10:44:00.056Z,18.40
2017-09-22T10:46:28.045Z,18.20
2017-09-22T10:48:56.016Z,18.50
2017-09-22T10:51:23.851Z,18.60
2017-09-22T10:53:51.933Z,18.70
2017-09-22T10:56:20.187Z,19.10
2017-09-22T10:58:48.053Z,19.20
2017-09-22T11:01:16.142Z,19.30
2017-09-22T11:03:44.039Z,19.00
2017-09-22T11:06:12.623Z,18.80
2017-09-22T11:08:40.567Z,19.00
2017-09-22T11:11:09.303Z,18.80
2017-09-22T11:13:37.337Z,18.80
2017-09-22T11:16:05.393Z,19.40
2017-09-22T11:18:33.174Z,19.50
2017-09-22T11:21:01.037Z,19.40
2017-09-22T11:23:28.891Z,18.70
2017-09-22T11:25:57.278Z,18.40
2017-09-22T11:28:25.341Z,18.60
2017-09-22T11:30:53.445Z,18.80
2017-09-22T11:33:22.126Z,18.70
2017-09-22T11:35:50.057Z,18.70
2017-09-22T11:38:18.052Z,18.60
2017-09-22T11:40:47.106Z,18.60
2017-09-22T11:43:15.609Z,18.70
2017-09-22T11:45:43.355Z,18.80
2017-09-22T11:48:11.365Z,18.90
2017-09-22T11:50:39.311Z,18.80
2017-09-22T11:53:07.094Z,19.30
2017-09-22T11:55:34.977Z,19.60
2017-09-22T11:58:03.417Z,19.70
2017-09-22T12:00:31.290Z,19.00
2017-09-22T12:02:59.278Z,18.90
2017-09-22T12:05:27.230Z,18.90
2017-09-22T12:07:55.215Z,19.20
2017-09-22T12:10:23.080Z,19.20
2017-09-22T12:12:50.843Z,19.10
2017-09-22T12:15:18.651Z,19.00
2017-09-22T12:17:46.646Z,19.20
2017-09-22T12:20:14.528Z,19.40
2017-09-22T12:22:42.284Z,19.30
2017-09-22T12:25:10.206Z,19.50
2017-09-22T12:27:38.730Z,19.40
2017-09-22T12:30:06.590Z,19.40
2017-09-22T12:32:34.399Z,19.40
2017-09-22T12:35:02.501Z,19.20
2017-09-22T12:37:31.332Z,19.20
2017-09-22T12:39:59.121Z,19.20
2017-09-22T12:42:27.090Z,19.10
2017-09-22T12:44:55.078Z,19.20
2017-09-22T12:47:23.724Z,19.30
2017-09-22T12:49:51.715Z,19.30
2017-09-22T12:52:19.698Z,19.40
2017-09-22T12:54:48.269Z,20.00
2017-09-22T12:57:16.351Z,20.00
2017-09-22T12:59:44.219Z,20.20
2017-09-22T13:02:13.009Z,20.50
2017-09-22T13:04:41.761Z,20.30
2017-09-22T13:07:10.015Z,20.20
2017-09-22T13:09:38.109Z,20.20
2017-09-22T13:12:06.126Z,20.30
2017-09-22T13:14:34.856Z,20.70
2017-09-22T13:17:02.693Z,20.60
2017-09-22T13:19:31.241Z,20.80
2017-09-22T13:21:59.871Z,21.40
2017-09-22T13:24:28.174Z,21.40
2017-09-22T13:26:56.041Z,21.30
2017-09-22T13:29:24.111Z,21.40
2017-09-22T13:31:51.875Z,21.50
2017-09-22T13:34:19.869Z,21.40
2017-09-22T13:36:47.742Z,20.80
2017-09-22T13:39:17.424Z,21.50
2017-09-22T13:41:46.112Z,21.50
2017-09-22T13:44:16.078Z,22.70
2017-09-22T13:46:49.083Z,22.60
2017-09-22T13:49:18.647Z,22.70
2017-09-22T13:51:48.189Z,22.20
2017-09-22T13:54:16.645Z,22.10
2017-09-22T13:56:44.776Z,21.40
2017-09-22T13:59:13.282Z,21.70
2017-09-22T14:01:41.331Z,22.00
2017-09-22T14:04:10.611Z,21.90
2017-09-22T14:06:38.513Z,22.20
2017-09-22T14:09:06.293Z,22.20
2017-09-22T14:11:34.228Z,21.80
2017-09-22T14:14:02.297Z,21.10
2017-09-22T14:16:30.535Z,21.30
2017-09-22T14:18:59.226Z,21.80
2017-09-22T14:21:27.025Z,21.80
2017-09-22T14:23:55.096Z,21.70
2017-09-22T14:26:23.269Z,21.70
2017-09-22T14:28:51.138Z,21.90
2017-09-22T14:31:19.234Z,22.30
2017-09-22T14:33:47.300Z,22.40
2017-09-22T14:36:16.182Z,23.10
2017-09-22T14:38:44.050Z,23.10
2017-09-22T14:41:11.921Z,23.00
2017-09-22T14:43:39.785Z,23.10
2017-09-22T14:46:07.560Z,23.00
2017-09-22T14:48:36.835Z,23.00
2017-09-22T14:51:04.695Z,23.00
2017-09-22T14:53:32.691Z,23.10
2017-09-22T14:56:01.088Z,23.20
2017-09-22T14:58:29.760Z,22.80
2017-09-22T15:00:57.570Z,22.80
2017-09-22T15:03:25.382Z,22.90
2017-09-22T15:05:53.153Z,23.30
2017-09-22T15:08:20.957Z,23.40
2017-09-22T15:10:48.873Z,23.40
2017-09-22T15:13:17.065Z,23.50
2017-09-22T15:15:45.232Z,23.40
2017-09-22T15:18:13.277Z,23.50
2017-09-22T15:20:41.276Z,23.40
2017-09-22T15:23:09.774Z,23.40
2017-09-22T15:25:38.414Z,23.60
2017-09-22T15:28:06.721Z,23.60
2017-09-22T15:30:35.298Z,23.60
2017-09-22T15:33:03.346Z,23.60
2017-09-22T15:35:31.236Z,23.20
2017-09-22T15:37:59.758Z,23.80
2017-09-22T15:40:27.681Z,23.80
2017-09-22T15:42:55.751Z,23.90
2017-09-22T15:45:23.717Z,23.80
2017-09-22T15:47:52.198Z,23.60
2017-09-22T15:50:20.277Z,23.20
2017-09-22T15:52:48.615Z,22.80
2017-09-22T15:55:16.483Z,22.50
2017-09-22T15:57:44.275Z,22.40
2017-09-22T16:00:12.252Z,22.20
2017-09-22T16:02:40.233Z,22.20
2017-09-22T16:05:08.092Z,22.00
2017-09-22T16:07:36.351Z,22.10
2017-09-22T16:10:05.417Z,21.90
2017-09-22T16:12:33.327Z,21.70
2017-09-22T16:15:01.170Z,21.00
2017-09-22T16:17:29.075Z,20.70
2017-09-22T16:19:58.161Z,20.00
2017-09-22T16:22:26.027Z,20.00
2017-09-22T16:24:54.078Z,20.00
2017-09-22T16:27:22.206Z,19.80
2017-09-22T16:29:50.044Z,19.50
2017-09-22T16:32:18.648Z,19.60
2017-09-22T16:34:47.403Z,19.60
2017-09-22T16:37:15.374Z,19.60
2017-09-22T16:39:43.244Z,19.50
2017-09-22T16:42:11.188Z,18.90
2017-09-22T16:44:39.154Z,18.40
2017-09-22T16:47:07.033Z,18.00
2017-09-22T16:49:35.118Z,17.60
2017-09-22T16:52:03.162Z,17.30
2017-09-22T16:54:30.956Z,16.90
2017-09-22T16:56:59.100Z,16.70
2017-09-22T16:59:26.993Z,16.40
2017-09-22T17:01:54.849Z,16.20
2017-09-22T17:04:24.172Z,15.80
2017-09-22T17:06:53.748Z,15.60
2017-09-22T17:09:21.659Z,15.60
2017-09-22T17:11:50.418Z,15.40
2017-09-22T17:14:18.468Z,15.30
2017-09-22T17:16:47.559Z,15.20
2017-09-22T17:19:15.384Z,15.20
2017-09-22T17:21:44.024Z,14.90
2017-09-22T17:24:11.884Z,14.90
2017-09-22T17:26:39.846Z,14.90
2017-09-22T17:29:07.753Z,14.80
2017-09-22T17:31:36.704Z,14.80
2017-09-22T17:34:04.502Z,14.70
2017-09-22T17:36:32.360Z,14.60
2017-09-22T17:39:00.921Z,14.50
2017-09-22T17:41:29.648Z,14.40
2017-09-22T17:43:57.888Z,14.40
2017-09-22T17:46:26.669Z,14.30
2017-09-22T17:48:54.763Z,14.30
2017-09-22T17:51:22.763Z,14.20
2017-09-22T17:53:52.420Z,14.10
2017-09-22T17:56:20.486Z,14.10
2017-09-22T17:58:48.673Z,14.00
2017-09-22T18:01:16.540Z,14.00
2017-09-22T18:03:44.712Z,13.90
2017-09-22T18:06:12.781Z,14.00
2017-09-22T18:08:43.276Z,14.00
2017-09-22T18:11:11.174Z,14.00
2017-09-22T18:13:39.055Z,14.10
2017-09-22T18:16:06.922Z,14.20
2017-09-22T18:18:34.724Z,14.10
2017-09-22T18:21:03.774Z,14.00
2017-09-22T18:23:31.631Z,14.00
2017-09-22T18:25:59.610Z,14.10
2017-09-22T18:28:27.501Z,14.00
2017-09-22T18:30:55.656Z,14.00
2017-09-22T18:33:23.602Z,13.80
2017-09-22T18:35:51.575Z,13.70
2017-09-22T18:38:19.448Z,13.50
2017-09-22T18:40:47.951Z,13.40
2017-09-22T18:43:15.822Z,13.40
2017-09-22T18:45:43.974Z,13.40
2017-09-22T18:48:11.938Z,13.40
2017-09-22T18:50:40.329Z,13.40
2017-09-22T18:53:08.317Z,13.60
2017-09-22T18:55:36.721Z,13.70
2017-09-22T18:58:04.940Z,13.60
2017-09-22T19:00:32.745Z,13.70
2017-09-22T19:03:01.403Z,14.00
2017-09-22T19:05:29.281Z,14.00
2017-09-22T19:07:58.073Z,13.90
2017-09-22T19:10:27.025Z,13.80
2017-09-22T19:12:55.120Z,13.80
2017-09-22T19:15:23.094Z,13.80
2017-09-22T19:17:51.066Z,13.80
2017-09-22T19:20:18.941Z,13.70
2017-09-22T19:22:48.513Z,13.90
2017-09-22T19:25:17.128Z,13.90
2017-09-22T19:27:45.000Z,14.00
2017-09-22T19:30:13.156Z,14.10
2017-09-22T19:32:41.240Z,14.20
2017-09-22T19:35:09.386Z,14.30
2017-09-22T19:37:37.267Z,14.30
2017-09-22T19:40:05.224Z,14.40
2017-09-22T19:42:34.144Z,14.40
2017-09-22T19:45:02.100Z,14.40
2017-09-22T19:47:30.150Z,14.30
2017-09-22T19:49:58.327Z,14.30
2017-09-22T19:52:26.212Z,14.30
2017-09-22T19:54:54.081Z,14.10
2017-09-22T19:57:22.173Z,14.10
2017-09-22T19:59:50.913Z,14.00
2017-09-22T20:02:18.988Z,13.90
2017-09-22T20:04:46.899Z,13.80
2017-09-22T20:07:15.674Z,13.70
2017-09-22T20:09:43.625Z,13.70
2017-09-22T20:12:11.823Z,13.50
2017-09-22T20:14:41.295Z,13.30
2017-09-22T20:17:09.506Z,13.30
2017-09-22T20:19:38.172Z,13.30
2017-09-22T20:22:06.247Z,13.30
2017-09-22T20:24:34.109Z,13.30
2017-09-22T20:27:02.167Z,13.20
2017-09-22T20:29:30.258Z,13.30
2017-09-22T20:31:59.253Z,13.30
2017-09-22T20:34:27.120Z,13.40
2017-09-22T20:36:55.074Z,13.50
2017-09-22T20:39:23.093Z,13.50
2017-09-22T20:41:50.989Z,13.60
2017-09-22T20:44:19.986Z,13.60
2017-09-22T20:46:50.104Z,13.50
2017-09-22T20:49:18.482Z,13.40
2017-09-22T20:51:46.468Z,13.40
2017-09-22T20:54:14.706Z,13.40
2017-09-22T20:56:43.102Z,13.50
2017-09-22T20:59:11.647Z,13.60
2017-09-22T21:01:39.557Z,13.60
2017-09-22T21:04:07.934Z,13.40
2017-09-22T21:06:35.927Z,13.30
2017-09-22T21:09:04.076Z,13.30
2017-09-22T21:11:49.146Z,13.20
2017-09-22T21:14:17.345Z,13.20
2017-09-22T21:16:45.286Z,13.10
2017-09-22T21:19:14.313Z,13.10
2017-09-22T21:21:42.368Z,13.10
2017-09-22T21:24:10.317Z,13.20
2017-09-22T21:26:38.305Z,13.20
2017-09-22T21:29:06.364Z,13.10
2017-09-22T21:31:34.155Z,13.00
2017-09-22T21:34:02.720Z,12.90
2017-09-22T21:36:30.980Z,12.90
2017-09-22T21:38:58.739Z,13.10
2017-09-22T21:41:26.818Z,13.10
2017-09-22T21:43:54.713Z,13.10
2017-09-22T21:46:24.190Z,13.20
2017-09-22T21:48:52.750Z,13.20
2017-09-22T21:51:20.818Z,13.30
2017-09-22T21:53:48.821Z,13.30
2017-09-22T21:56:16.598Z,13.10
2017-09-22T21:58:44.442Z,13.00
2017-09-22T22:01:12.435Z,12.90
2017-09-22T22:03:46.259Z,12.90
2017-09-22T22:06:20.360Z,12.90
2017-09-22T22:08:53.980Z,12.90
2017-09-22T22:11:22.529Z,13.10
2017-09-22T22:13:50.402Z,13.10
2017-09-22T22:16:18.270Z,12.90
2017-09-22T22:18:46.125Z,12.60
2017-09-22T22:21:13.979Z,12.60
2017-09-22T22:23:41.903Z,12.70
2017-09-22T22:26:10.631Z,12.50
2017-09-22T22:28:38.502Z,12.40
2017-09-22T22:31:07.075Z,12.30
2017-09-22T22:33:35.058Z,12.20
2017-09-22T22:36:03.141Z,12.20
2017-09-22T22:38:31.128Z,12.10
2017-09-22T22:40:59.033Z,12.10
2017-09-22T22:43:26.843Z,12.10
2017-09-22T22:45:54.711Z,12.00
2017-09-22T22:48:22.689Z,11.90
2017-09-22T22:50:50.831Z,11.90
2017-09-22T22:53:18.598Z,11.90
2017-09-22T22:55:46.474Z,11.90
2017-09-22T22:58:14.447Z,11.70
2017-09-22T23:00:42.615Z,11.70
2017-09-22T23:03:10.475Z,11.60
2017-09-22T23:05:38.356Z,11.80
2017-09-22T23:08:06.335Z,11.90
2017-09-22T23:10:34.382Z,11.80
2017-09-22T23:13:02.168Z,12.10
2017-09-22T23:15:30.336Z,12.10
2017-09-22T23:17:58.477Z,12.10
2017-09-22T23:20:26.403Z,12.10
2017-09-22T23:22:55.284Z,12.10
2017-09-22T23:25:23.832Z,12.10
2017-09-22T23:27:52.038Z,12.00
2017-09-22T23:30:19.900Z,11.90
2017-09-22T23:32:47.745Z,11.90
2017-09-22T23:35:15.605Z,11.80
2017-09-22T23:37:43.398Z,11.80
2017-09-22T23:40:12.056Z,11.80
2017-09-22T23:42:39.848Z,11.90
2017-09-22T23:45:07.682Z,11.90
2017-09-22T23:47:37.042Z,11.90
2017-09-22T23:50:05.656Z,11.80
2017-09-22T23:52:33.539Z,11.90
2017-09-22T23:55:01.417Z,11.90
2017-09-22T23:57:29.203Z,11.70
2017-09-22T23:59:57.156Z,11.70
